YM Neptune — 9HA2017 — position and weather

sailwx.info

Track history (hours):
 
Tides and Currents Weather Stations Pressure Air Temp Water Temp Dewpoint Dewpoint Depression Visibility Wind Speed Wind Dir Waves Ship Positions

YM Neptune

Last reported at 2018-Apr-25 10:15 UTC. Time now 2018-Apr-26 00:14 UTC.
Position N 38°33' E 008°30'.

Length 119 m; draft 6.3 m.

Type: Tanker. MMSI: 249813000.

Date/timePositionNaut miles runAvg speedWind from/ knotsBaromVisibWave heightAir tempDewpointWater temp
2018-Apr-25 10:15N 38°33' E 008°30'310.1
2018-Apr-25 10:00N 38°32' E 008°33'610.0
2018-Apr-25 09:22N 38°30' E 008°41'410.0
2018-Apr-25 08:59N 38°29' E 008°45'510.4
2018-Apr-25 08:30N 38°28' E 008°52'610.2
2018-Apr-25 07:57N 38°26' E 008°58'610.4
2018-Apr-25 07:21N 38°24' E 009°06'410.3
2018-Apr-25 07:00N 38°23' E 009°10'1110.2
2018-Apr-25 05:53N 38°20' E 009°24'4810.0
2018-Apr-25 01:05N 38°05' E 010°22'51 9.7
2018-Apr-24 19:49N 37°43' E 011°21'310.2
2018-Apr-24 19:31N 37°42' E 011°24'510.2
2018-Apr-24 18:59N 37°39' E 011°30'2810.4
2018-Apr-24 16:17N 37°27' E 012°02'310.4
2018-Apr-24 15:59N 37°26' E 012°06'510.4
2018-Apr-24 15:30N 37°24' E 012°12'510.2
2018-Apr-24 14:59N 37°22' E 012°18'710.1
2018-Apr-24 14:16N 37°19' E 012°26'1810.3
2018-Apr-24 12:30N 37°13' E 012°48'610.3
2018-Apr-24 11:58N 37°11' E 012°54'810.6
2018-Apr-24 11:11N 37°08' E 013°04'310.5
2018-Apr-24 10:52N 37°07' E 013°08'410.4
2018-Apr-24 10:30N 37°05' E 013°12'510.1
2018-Apr-24 10:00N 37°04' E 013°18'510.6
2018-Apr-24 09:31N 37°01' E 013°24'611.0
2018-Apr-24 09:01N 36°59' E 013°30'510.2
2018-Apr-24 08:30N 36°58' E 013°36'510.3
2018-Apr-24 08:00N 36°56' E 013°43'510.3
2018-Apr-24 07:30N 36°54' E 013°49'510.3
2018-Apr-24 07:01N 36°53' E 013°55'510.3
2018-Apr-24 06:30N 36°51' E 014°01'510.1
2018-Apr-24 06:01N 36°49' E 014°07'510.0
2018-Apr-24 05:30N 36°47' E 014°13'5 9.8
2018-Apr-24 05:00N 36°45' E 014°18'5 9.5
2018-Apr-24 04:31N 36°43' E 014°23'5 9.4
2018-Apr-24 04:00N 36°42' E 014°29'5 9.3
2018-Apr-24 03:29N 36°40' E 014°34'5 9.5
2018-Apr-24 03:00N 36°39' E 014°40'510.6
2018-Apr-24 02:30N 36°37' E 014°46'510.7
2018-Apr-24 02:00N 36°36' E 014°53'610.4
2018-Apr-24 01:26N 36°35' E 015°00'11 9.5
2018-Apr-24 00:14N 36°39' E 015°13'310.6
2018-Apr-23 23:58N 36°41' E 015°15'710.6
2018-Apr-23 23:21N 36°47' E 015°20'410.7
2018-Apr-23 23:00N 36°50' E 015°21'610.7
2018-Apr-23 22:25N 36°56' E 015°24'510.5
2018-Apr-23 21:56N 37°01' E 015°26'511.0
2018-Apr-23 21:27N 37°06' E 015°24'  
2018-Apr-21 15:37N 37°10' E 015°26'111.1
2018-Apr-21 15:30N 37°10' E 015°27'1611.3
2018-Apr-21 14:04N 37°07' E 015°47'111.0
2018-Apr-21 13:56N 37°07' E 015°49'382 9.7
2018-Apr-19 22:25N 37°09' E 023°48'4111.0
2018-Apr-19 18:44N 37°44' E 024°14'  
Track history (hours):
 
Tides and Currents Weather Stations Pressure Air Temp Water Temp Dewpoint Dewpoint Depression Visibility Wind Speed Wind Dir Waves Ship Positions

YM Neptune

Last reported at 2018-Apr-25 10:15 UTC. Time now 2018-Apr-26 00:14 UTC.
Position N 38°33' E 008°30'.

Length 119 m; draft 6.3 m.

Type: Tanker. MMSI: 249813000.

Date/timePositionNaut miles runAvg speedWind from/ knotsBaromVisibWave heightAir tempDewpointWater temp
2018-Apr-25 10:15N 38°33' E 008°30'310.1
2018-Apr-25 10:00N 38°32' E 008°33'610.0
2018-Apr-25 09:22N 38°30' E 008°41'410.0
2018-Apr-25 08:59N 38°29' E 008°45'510.4
2018-Apr-25 08:30N 38°28' E 008°52'610.2
2018-Apr-25 07:57N 38°26' E 008°58'610.4
2018-Apr-25 07:21N 38°24' E 009°06'410.3
2018-Apr-25 07:00N 38°23' E 009°10'1110.2
2018-Apr-25 05:53N 38°20' E 009°24'4810.0
2018-Apr-25 01:05N 38°05' E 010°22'51 9.7
2018-Apr-24 19:49N 37°43' E 011°21'310.2
2018-Apr-24 19:31N 37°42' E 011°24'510.2
2018-Apr-24 18:59N 37°39' E 011°30'2810.4
2018-Apr-24 16:17N 37°27' E 012°02'310.4
2018-Apr-24 15:59N 37°26' E 012°06'510.4
2018-Apr-24 15:30N 37°24' E 012°12'510.2
2018-Apr-24 14:59N 37°22' E 012°18'710.1
2018-Apr-24 14:16N 37°19' E 012°26'1810.3
2018-Apr-24 12:30N 37°13' E 012°48'610.3
2018-Apr-24 11:58N 37°11' E 012°54'810.6
2018-Apr-24 11:11N 37°08' E 013°04'310.5
2018-Apr-24 10:52N 37°07' E 013°08'410.4
2018-Apr-24 10:30N 37°05' E 013°12'510.1
2018-Apr-24 10:00N 37°04' E 013°18'510.6
2018-Apr-24 09:31N 37°01' E 013°24'611.0
2018-Apr-24 09:01N 36°59' E 013°30'510.2
2018-Apr-24 08:30N 36°58' E 013°36'510.3
2018-Apr-24 08:00N 36°56' E 013°43'510.3
2018-Apr-24 07:30N 36°54' E 013°49'510.3
2018-Apr-24 07:01N 36°53' E 013°55'510.3
2018-Apr-24 06:30N 36°51' E 014°01'510.1
2018-Apr-24 06:01N 36°49' E 014°07'510.0
2018-Apr-24 05:30N 36°47' E 014°13'5 9.8
2018-Apr-24 05:00N 36°45' E 014°18'5 9.5
2018-Apr-24 04:31N 36°43' E 014°23'5 9.4
2018-Apr-24 04:00N 36°42' E 014°29'5 9.3
2018-Apr-24 03:29N 36°40' E 014°34'5 9.5
2018-Apr-24 03:00N 36°39' E 014°40'510.6
2018-Apr-24 02:30N 36°37' E 014°46'510.7
2018-Apr-24 02:00N 36°36' E 014°53'610.4
2018-Apr-24 01:26N 36°35' E 015°00'11 9.5
2018-Apr-24 00:14N 36°39' E 015°13'310.6
2018-Apr-23 23:58N 36°41' E 015°15'710.6
2018-Apr-23 23:21N 36°47' E 015°20'410.7
2018-Apr-23 23:00N 36°50' E 015°21'610.7
2018-Apr-23 22:25N 36°56' E 015°24'510.5
2018-Apr-23 21:56N 37°01' E 015°26'511.0
2018-Apr-23 21:27N 37°06' E 015°24'  
2018-Apr-21 15:37N 37°10' E 015°26'111.1
2018-Apr-21 15:30N 37°10' E 015°27'1611.3
2018-Apr-21 14:04N 37°07' E 015°47'111.0
2018-Apr-21 13:56N 37°07' E 015°49'382 9.7
2018-Apr-19 22:25N 37°09' E 023°48'4111.0
2018-Apr-19 18:44N 37°44' E 024°14'  

Dump ship's entire track history